sensor_id;sensor_type;location;lat;lon;timestamp;P1;durP1;ratioP1;P2;durP2;ratioP2
6280;SDS011;3173;48.204;11.612;2022-12-18T00:01:29;50.65;;;19.13;;
6280;SDS011;3173;48.204;11.612;2022-12-18T00:03:56;44.03;;;17.65;;
6280;SDS011;3173;48.204;11.612;2022-12-18T00:06:23;53.85;;;20.67;;
6280;SDS011;3173;48.204;11.612;2022-12-18T00:08:50;51.50;;;18.10;;
6280;SDS011;3173;48.204;11.612;2022-12-18T00:11:17;48.60;;;18.17;;
6280;SDS011;3173;48.204;11.612;2022-12-18T00:13:44;59.35;;;17.75;;
6280;SDS011;3173;48.204;11.612;2022-12-18T00:16:12;44.38;;;15.98;;
6280;SDS011;3173;48.204;11.612;2022-12-18T00:18:38;52.42;;;16.92;;
6280;SDS011;3173;48.204;11.612;2022-12-18T00:21:06;44.35;;;16.27;;
6280;SDS011;3173;48.204;11.612;2022-12-18T00:23:33;42.53;;;16.40;;
6280;SDS011;3173;48.204;11.612;2022-12-18T00:26:03;37.58;;;14.45;;
6280;SDS011;3173;48.204;11.612;2022-12-18T00:28:30;35.38;;;15.23;;
6280;SDS011;3173;48.204;11.612;2022-12-18T00:33:28;35.70;;;13.63;;
6280;SDS011;3173;48.204;11.612;2022-12-18T00:35:54;44.20;;;16.52;;
6280;SDS011;3173;48.204;11.612;2022-12-18T00:38:20;32.53;;;13.82;;
6280;SDS011;3173;48.204;11.612;2022-12-18T00:40:46;40.42;;;15.45;;
6280;SDS011;3173;48.204;11.612;2022-12-18T00:43:12;39.30;;;15.68;;
6280;SDS011;3173;48.204;11.612;2022-12-18T00:45:38;37.05;;;15.45;;
6280;SDS011;3173;48.204;11.612;2022-12-18T00:48:06;41.00;;;14.88;;
6280;SDS011;3173;48.204;11.612;2022-12-18T00:50:32;38.75;;;15.07;;
6280;SDS011;3173;48.204;11.612;2022-12-18T00:52:58;39.55;;;16.00;;
6280;SDS011;3173;48.204;11.612;2022-12-18T00:55:24;39.13;;;14.85;;
6280;SDS011;3173;48.204;11.612;2022-12-18T00:57:51;43.75;;;15.85;;
6280;SDS011;3173;48.204;11.612;2022-12-18T01:00:17;37.03;;;14.35;;
6280;SDS011;3173;48.204;11.612;2022-12-18T01:02:43;36.90;;;14.15;;
6280;SDS011;3173;48.204;11.612;2022-12-18T01:05:10;37.05;;;16.10;;
6280;SDS011;3173;48.204;11.612;2022-12-18T01:07:37;36.60;;;14.85;;
6280;SDS011;3173;48.204;11.612;2022-12-18T01:10:03;34.00;;;13.95;;
6280;SDS011;3173;48.204;11.612;2022-12-18T01:12:30;39.58;;;15.20;;
6280;SDS011;3173;48.204;11.612;2022-12-18T01:14:56;36.08;;;13.15;;
6280;SDS011;3173;48.204;11.612;2022-12-18T01:17:22;43.30;;;16.80;;
6280;SDS011;3173;48.204;11.612;2022-12-18T01:19:48;38.55;;;16.15;;
6280;SDS011;3173;48.204;11.612;2022-12-18T01:22:14;38.30;;;15.98;;
6280;SDS011;3173;48.204;11.612;2022-12-18T01:24:41;43.22;;;15.63;;
6280;SDS011;3173;48.204;11.612;2022-12-18T01:27:07;42.50;;;15.95;;
6280;SDS011;3173;48.204;11.612;2022-12-18T01:29:33;49.15;;;18.17;;
6280;SDS011;3173;48.204;11.612;2022-12-18T01:31:59;39.42;;;16.30;;
6280;SDS011;3173;48.204;11.612;2022-12-18T01:34:25;39.57;;;15.90;;
6280;SDS011;3173;48.204;11.612;2022-12-18T01:36:51;51.60;;;17.63;;
6280;SDS011;3173;48.204;11.612;2022-12-18T01:39:17;39.17;;;15.73;;
6280;SDS011;3173;48.204;11.612;2022-12-18T01:41:44;47.20;;;17.42;;
6280;SDS011;3173;48.204;11.612;2022-12-18T01:49:51;43.65;;;15.55;;
6280;SDS011;3173;48.204;11.612;2022-12-18T01:52:18;47.05;;;17.85;;
6280;SDS011;3173;48.204;11.612;2022-12-18T01:54:45;41.63;;;14.63;;
6280;SDS011;3173;48.204;11.612;2022-12-18T01:57:12;44.60;;;16.80;;
6280;SDS011;3173;48.204;11.612;2022-12-18T01:59:38;40.30;;;16.85;;
6280;SDS011;3173;48.204;11.612;2022-12-18T02:02:05;50.67;;;18.20;;
6280;SDS011;3173;48.204;11.612;2022-12-18T02:04:32;49.13;;;18.08;;
6280;SDS011;3173;48.204;11.612;2022-12-18T02:09:41;44.85;;;18.00;;
6280;SDS011;3173;48.204;11.612;2022-12-18T02:12:13;47.53;;;18.35;;
6280;SDS011;3173;48.204;11.612;2022-12-18T02:14:48;48.08;;;18.77;;
6280;SDS011;3173;48.204;11.612;2022-12-18T02:17:19;47.67;;;19.10;;
6280;SDS011;3173;48.204;11.612;2022-12-18T02:24:50;48.20;;;17.95;;
6280;SDS011;3173;48.204;11.612;2022-12-18T02:27:19;46.88;;;19.23;;
6280;SDS011;3173;48.204;11.612;2022-12-18T02:29:52;50.75;;;17.60;;
6280;SDS011;3173;48.204;11.612;2022-12-18T02:32:20;48.13;;;19.85;;
6280;SDS011;3173;48.204;11.612;2022-12-18T02:34:47;46.63;;;20.35;;
6280;SDS011;3173;48.204;11.612;2022-12-18T02:37:16;48.22;;;18.63;;
6280;SDS011;3173;48.204;11.612;2022-12-18T02:39:43;53.33;;;19.90;;
6280;SDS011;3173;48.204;11.612;2022-12-18T02:42:10;56.30;;;18.65;;
6280;SDS011;3173;48.204;11.612;2022-12-18T02:44:47;50.53;;;18.08;;
6280;SDS011;3173;48.204;11.612;2022-12-18T02:47:14;46.63;;;18.38;;
6280;SDS011;3173;48.204;11.612;2022-12-18T02:59:58;44.92;;;17.70;;
6280;SDS011;3173;48.204;11.612;2022-12-18T03:02:36;54.08;;;21.17;;
6280;SDS011;3173;48.204;11.612;2022-12-18T03:07:58;53.05;;;19.27;;
6280;SDS011;3173;48.204;11.612;2022-12-18T03:10:27;50.50;;;18.52;;
6280;SDS011;3173;48.204;11.612;2022-12-18T03:12:57;55.47;;;21.05;;
6280;SDS011;3173;48.204;11.612;2022-12-18T03:15:26;60.95;;;20.10;;
6280;SDS011;3173;48.204;11.612;2022-12-18T03:18:04;48.22;;;18.20;;
6280;SDS011;3173;48.204;11.612;2022-12-18T03:20:33;49.97;;;19.13;;
6280;SDS011;3173;48.204;11.612;2022-12-18T03:23:11;44.70;;;17.92;;
6280;SDS011;3173;48.204;11.612;2022-12-18T03:25:39;47.60;;;18.00;;
6280;SDS011;3173;48.204;11.612;2022-12-18T03:28:07;55.55;;;19.52;;
6280;SDS011;3173;48.204;11.612;2022-12-18T03:30:35;49.75;;;20.63;;
6280;SDS011;3173;48.204;11.612;2022-12-18T03:35:48;52.03;;;21.20;;
6280;SDS011;3173;48.204;11.612;2022-12-18T03:38:15;54.28;;;19.55;;
6280;SDS011;3173;48.204;11.612;2022-12-18T03:43:10;48.33;;;18.55;;
6280;SDS011;3173;48.204;11.612;2022-12-18T03:45:41;40.80;;;17.20;;
6280;SDS011;3173;48.204;11.612;2022-12-18T03:48:10;44.42;;;18.52;;
6280;SDS011;3173;48.204;11.612;2022-12-18T03:55:56;47.20;;;18.60;;
6280;SDS011;3173;48.204;11.612;2022-12-18T03:58:24;49.70;;;18.23;;
6280;SDS011;3173;48.204;11.612;2022-12-18T04:00:52;42.20;;;17.25;;
6280;SDS011;3173;48.204;11.612;2022-12-18T04:03:19;43.47;;;15.65;;
6280;SDS011;3173;48.204;11.612;2022-12-18T04:05:46;47.25;;;18.80;;
6280;SDS011;3173;48.204;11.612;2022-12-18T04:08:14;41.58;;;16.52;;
6280;SDS011;3173;48.204;11.612;2022-12-18T04:10:40;39.08;;;16.75;;
6280;SDS011;3173;48.204;11.612;2022-12-18T04:13:06;45.72;;;16.67;;
6280;SDS011;3173;48.204;11.612;2022-12-18T04:15:35;45.55;;;17.90;;
6280;SDS011;3173;48.204;11.612;2022-12-18T04:18:02;41.95;;;17.95;;
6280;SDS011;3173;48.204;11.612;2022-12-18T04:20:28;42.22;;;15.88;;
6280;SDS011;3173;48.204;11.612;2022-12-18T04:22:55;36.35;;;15.95;;
6280;SDS011;3173;48.204;11.612;2022-12-18T04:25:21;51.58;;;16.88;;
6280;SDS011;3173;48.204;11.612;2022-12-18T04:27:47;44.67;;;15.13;;
6280;SDS011;3173;48.204;11.612;2022-12-18T04:30:13;44.25;;;18.10;;
6280;SDS011;3173;48.204;11.612;2022-12-18T04:32:39;40.20;;;17.13;;
6280;SDS011;3173;48.204;11.612;2022-12-18T04:35:05;38.88;;;15.82;;
6280;SDS011;3173;48.204;11.612;2022-12-18T04:37:35;47.38;;;18.52;;
6280;SDS011;3173;48.204;11.612;2022-12-18T04:40:01;43.05;;;17.15;;
6280;SDS011;3173;48.204;11.612;2022-12-18T04:42:27;37.08;;;15.60;;
6280;SDS011;3173;48.204;11.612;2022-12-18T04:44:53;43.08;;;15.95;;
6280;SDS011;3173;48.204;11.612;2022-12-18T04:47:19;40.78;;;17.52;;
6280;SDS011;3173;48.204;11.612;2022-12-18T04:49:46;47.05;;;16.48;;
6280;SDS011;3173;48.204;11.612;2022-12-18T04:52:12;36.53;;;15.25;;
6280;SDS011;3173;48.204;11.612;2022-12-18T04:54:38;44.55;;;15.52;;
6280;SDS011;3173;48.204;11.612;2022-12-18T04:57:04;45.67;;;14.77;;
6280;SDS011;3173;48.204;11.612;2022-12-18T04:59:30;35.83;;;14.70;;
6280;SDS011;3173;48.204;11.612;2022-12-18T05:01:56;36.45;;;15.50;;
6280;SDS011;3173;48.204;11.612;2022-12-18T05:04:22;39.45;;;15.52;;
6280;SDS011;3173;48.204;11.612;2022-12-18T05:06:49;37.35;;;13.98;;
6280;SDS011;3173;48.204;11.612;2022-12-18T05:09:15;32.97;;;13.73;;
6280;SDS011;3173;48.204;11.612;2022-12-18T05:11:41;39.95;;;15.95;;
6280;SDS011;3173;48.204;11.612;2022-12-18T05:14:07;39.53;;;14.88;;
6280;SDS011;3173;48.204;11.612;2022-12-18T05:16:33;35.60;;;13.48;;
6280;SDS011;3173;48.204;11.612;2022-12-18T05:18:59;35.50;;;14.50;;
6280;SDS011;3173;48.204;11.612;2022-12-18T05:21:25;37.30;;;14.63;;
6280;SDS011;3173;48.204;11.612;2022-12-18T05:23:51;40.05;;;14.45;;
6280;SDS011;3173;48.204;11.612;2022-12-18T05:26:18;39.10;;;15.30;;
6280;SDS011;3173;48.204;11.612;2022-12-18T05:28:44;37.97;;;14.48;;
6280;SDS011;3173;48.204;11.612;2022-12-18T05:31:11;35.45;;;14.20;;
6280;SDS011;3173;48.204;11.612;2022-12-18T05:33:37;34.92;;;14.70;;
6280;SDS011;3173;48.204;11.612;2022-12-18T05:36:04;33.95;;;14.90;;
6280;SDS011;3173;48.204;11.612;2022-12-18T05:38:32;38.10;;;16.17;;
6280;SDS011;3173;48.204;11.612;2022-12-18T05:40:58;41.17;;;15.48;;
6280;SDS011;3173;48.204;11.612;2022-12-18T05:43:25;33.95;;;14.13;;
6280;SDS011;3173;48.204;11.612;2022-12-18T05:45:52;37.22;;;16.30;;
6280;SDS011;3173;48.204;11.612;2022-12-18T05:48:18;36.63;;;14.48;;
6280;SDS011;3173;48.204;11.612;2022-12-18T05:50:45;32.90;;;15.55;;
6280;SDS011;3173;48.204;11.612;2022-12-18T05:53:12;36.28;;;13.65;;
6280;SDS011;3173;48.204;11.612;2022-12-18T05:55:39;42.80;;;16.25;;
6280;SDS011;3173;48.204;11.612;2022-12-18T05:58:06;36.30;;;15.10;;
6280;SDS011;3173;48.204;11.612;2022-12-18T06:00:33;40.58;;;15.48;;
6280;SDS011;3173;48.204;11.612;2022-12-18T06:02:59;41.15;;;15.88;;
6280;SDS011;3173;48.204;11.612;2022-12-18T06:05:26;34.97;;;14.00;;
6280;SDS011;3173;48.204;11.612;2022-12-18T06:07:52;36.03;;;14.70;;
6280;SDS011;3173;48.204;11.612;2022-12-18T06:10:18;34.90;;;14.18;;
6280;SDS011;3173;48.204;11.612;2022-12-18T06:12:44;31.73;;;15.18;;
6280;SDS011;3173;48.204;11.612;2022-12-18T06:15:10;33.95;;;15.20;;
6280;SDS011;3173;48.204;11.612;2022-12-18T06:17:36;45.70;;;16.33;;
6280;SDS011;3173;48.204;11.612;2022-12-18T06:20:02;36.25;;;14.65;;
6280;SDS011;3173;48.204;11.612;2022-12-18T06:22:30;40.05;;;17.00;;
6280;SDS011;3173;48.204;11.612;2022-12-18T06:24:57;38.83;;;14.88;;
6280;SDS011;3173;48.204;11.612;2022-12-18T06:27:24;38.35;;;14.50;;
6280;SDS011;3173;48.204;11.612;2022-12-18T06:29:50;39.87;;;14.93;;
6280;SDS011;3173;48.204;11.612;2022-12-18T06:32:16;39.87;;;16.13;;
6280;SDS011;3173;48.204;11.612;2022-12-18T06:34:42;44.23;;;15.53;;
6280;SDS011;3173;48.204;11.612;2022-12-18T06:37:08;41.53;;;16.30;;
6280;SDS011;3173;48.204;11.612;2022-12-18T06:39:34;41.63;;;16.57;;
6280;SDS011;3173;48.204;11.612;2022-12-18T06:42:00;42.93;;;17.87;;
6280;SDS011;3173;48.204;11.612;2022-12-18T06:44:26;41.72;;;15.60;;
6280;SDS011;3173;48.204;11.612;2022-12-18T06:46:52;40.97;;;16.63;;
6280;SDS011;3173;48.204;11.612;2022-12-18T06:49:18;39.90;;;17.23;;
6280;SDS011;3173;48.204;11.612;2022-12-18T06:51:43;50.00;;;17.50;;
6280;SDS011;3173;48.204;11.612;2022-12-18T06:54:09;47.00;;;16.50;;
6280;SDS011;3173;48.204;11.612;2022-12-18T06:56:35;44.77;;;16.80;;
6280;SDS011;3173;48.204;11.612;2022-12-18T06:59:01;41.33;;;16.27;;
6280;SDS011;3173;48.204;11.612;2022-12-18T07:01:27;40.55;;;14.98;;
6280;SDS011;3173;48.204;11.612;2022-12-18T07:03:54;43.50;;;16.60;;
6280;SDS011;3173;48.204;11.612;2022-12-18T07:06:21;41.22;;;15.05;;
6280;SDS011;3173;48.204;11.612;2022-12-18T07:08:48;35.70;;;15.02;;
6280;SDS011;3173;48.204;11.612;2022-12-18T07:11:14;37.58;;;15.40;;
6280;SDS011;3173;48.204;11.612;2022-12-18T07:13:40;39.30;;;16.55;;
6280;SDS011;3173;48.204;11.612;2022-12-18T07:16:10;35.17;;;15.13;;
6280;SDS011;3173;48.204;11.612;2022-12-18T07:18:36;41.10;;;16.65;;
6280;SDS011;3173;48.204;11.612;2022-12-18T07:21:03;34.03;;;15.05;;
6280;SDS011;3173;48.204;11.612;2022-12-18T07:23:30;44.20;;;15.73;;
6280;SDS011;3173;48.204;11.612;2022-12-18T07:26:00;31.38;;;14.30;;
6280;SDS011;3173;48.204;11.612;2022-12-18T07:28:26;37.15;;;15.25;;
6280;SDS011;3173;48.204;11.612;2022-12-18T07:30:52;40.17;;;13.73;;
6280;SDS011;3173;48.204;11.612;2022-12-18T07:33:18;38.53;;;14.73;;
6280;SDS011;3173;48.204;11.612;2022-12-18T07:35:43;39.23;;;14.87;;
6280;SDS011;3173;48.204;11.612;2022-12-18T07:38:09;35.37;;;13.93;;
6280;SDS011;3173;48.204;11.612;2022-12-18T07:40:35;33.50;;;14.18;;
6280;SDS011;3173;48.204;11.612;2022-12-18T07:43:01;35.30;;;14.63;;
6280;SDS011;3173;48.204;11.612;2022-12-18T07:45:27;33.05;;;14.48;;
6280;SDS011;3173;48.204;11.612;2022-12-18T07:47:53;38.47;;;15.70;;
6280;SDS011;3173;48.204;11.612;2022-12-18T07:50:19;32.83;;;13.00;;
6280;SDS011;3173;48.204;11.612;2022-12-18T07:52:45;30.50;;;13.13;;
6280;SDS011;3173;48.204;11.612;2022-12-18T07:55:11;32.10;;;13.20;;
6280;SDS011;3173;48.204;11.612;2022-12-18T07:57:37;34.00;;;13.37;;
6280;SDS011;3173;48.204;11.612;2022-12-18T08:00:03;32.93;;;14.33;;
6280;SDS011;3173;48.204;11.612;2022-12-18T08:02:32;28.77;;;12.13;;
6280;SDS011;3173;48.204;11.612;2022-12-18T08:04:58;29.77;;;11.80;;
6280;SDS011;3173;48.204;11.612;2022-12-18T08:07:24;28.23;;;10.30;;
6280;SDS011;3173;48.204;11.612;2022-12-18T08:09:50;34.23;;;12.90;;
6280;SDS011;3173;48.204;11.612;2022-12-18T08:12:16;34.20;;;12.63;;
6280;SDS011;3173;48.204;11.612;2022-12-18T08:14:42;38.93;;;13.27;;
6280;SDS011;3173;48.204;11.612;2022-12-18T08:17:08;32.47;;;14.20;;
6280;SDS011;3173;48.204;11.612;2022-12-18T08:19:34;37.70;;;13.30;;
6280;SDS011;3173;48.204;11.612;2022-12-18T08:22:00;37.63;;;13.40;;
6280;SDS011;3173;48.204;11.612;2022-12-18T08:24:26;30.70;;;12.10;;
6280;SDS011;3173;48.204;11.612;2022-12-18T08:26:52;33.60;;;14.57;;
6280;SDS011;3173;48.204;11.612;2022-12-18T08:29:18;36.67;;;13.93;;
6280;SDS011;3173;48.204;11.612;2022-12-18T08:31:44;25.67;;;13.43;;
6280;SDS011;3173;48.204;11.612;2022-12-18T08:34:10;33.97;;;12.70;;
6280;SDS011;3173;48.204;11.612;2022-12-18T08:36:36;27.83;;;11.57;;
6280;SDS011;3173;48.204;11.612;2022-12-18T08:39:02;36.40;;;13.47;;
6280;SDS011;3173;48.204;11.612;2022-12-18T08:41:28;32.72;;;12.30;;
6280;SDS011;3173;48.204;11.612;2022-12-18T08:43:54;27.40;;;12.00;;
6280;SDS011;3173;48.204;11.612;2022-12-18T08:46:39;34.70;;;13.30;;
6280;SDS011;3173;48.204;11.612;2022-12-18T08:49:06;31.10;;;13.27;;
6280;SDS011;3173;48.204;11.612;2022-12-18T08:51:33;34.30;;;13.75;;
6280;SDS011;3173;48.204;11.612;2022-12-18T08:53:59;31.35;;;12.55;;
6280;SDS011;3173;48.204;11.612;2022-12-18T08:56:25;28.23;;;13.07;;
6280;SDS011;3173;48.204;11.612;2022-12-18T08:58:54;26.47;;;10.50;;
6280;SDS011;3173;48.204;11.612;2022-12-18T09:01:20;28.00;;;10.05;;
6280;SDS011;3173;48.204;11.612;2022-12-18T09:03:46;31.67;;;11.68;;
6280;SDS011;3173;48.204;11.612;2022-12-18T09:06:16;31.38;;;14.05;;
6280;SDS011;3173;48.204;11.612;2022-12-18T09:08:43;30.90;;;12.77;;
6280;SDS011;3173;48.204;11.612;2022-12-18T09:11:13;29.88;;;12.90;;
6280;SDS011;3173;48.204;11.612;2022-12-18T09:13:39;30.25;;;12.13;;
6280;SDS011;3173;48.204;11.612;2022-12-18T09:16:05;26.00;;;11.27;;
6280;SDS011;3173;48.204;11.612;2022-12-18T09:18:31;31.10;;;12.88;;
6280;SDS011;3173;48.204;11.612;2022-12-18T09:20:57;30.13;;;12.83;;
6280;SDS011;3173;48.204;11.612;2022-12-18T09:23:23;27.60;;;10.90;;
6280;SDS011;3173;48.204;11.612;2022-12-18T09:25:49;33.93;;;13.47;;
6280;SDS011;3173;48.204;11.612;2022-12-18T09:28:16;34.03;;;13.60;;
6280;SDS011;3173;48.204;11.612;2022-12-18T09:30:51;30.88;;;12.63;;
6280;SDS011;3173;48.204;11.612;2022-12-18T09:33:17;35.65;;;12.82;;
6280;SDS011;3173;48.204;11.612;2022-12-18T09:35:44;31.93;;;11.90;;
6280;SDS011;3173;48.204;11.612;2022-12-18T09:38:14;27.60;;;12.07;;
6280;SDS011;3173;48.204;11.612;2022-12-18T09:40:42;32.78;;;12.90;;
6280;SDS011;3173;48.204;11.612;2022-12-18T09:43:12;29.05;;;12.90;;
6280;SDS011;3173;48.204;11.612;2022-12-18T09:45:41;25.20;;;11.70;;
6280;SDS011;3173;48.204;11.612;2022-12-18T09:48:10;29.63;;;11.52;;
6280;SDS011;3173;48.204;11.612;2022-12-18T09:50:41;33.95;;;13.23;;
6280;SDS011;3173;48.204;11.612;2022-12-18T09:53:10;26.52;;;11.60;;
6280;SDS011;3173;48.204;11.612;2022-12-18T09:55:39;26.33;;;12.13;;
6280;SDS011;3173;48.204;11.612;2022-12-18T10:00:52;27.48;;;12.23;;
6280;SDS011;3173;48.204;11.612;2022-12-18T10:03:18;22.33;;;10.10;;
6280;SDS011;3173;48.204;11.612;2022-12-18T10:10:44;31.77;;;13.47;;
6280;SDS011;3173;48.204;11.612;2022-12-18T10:16:00;30.40;;;11.93;;
6280;SDS011;3173;48.204;11.612;2022-12-18T10:21:07;30.63;;;12.90;;
6280;SDS011;3173;48.204;11.612;2022-12-18T10:26:19;28.13;;;11.85;;
6280;SDS011;3173;48.204;11.612;2022-12-18T10:28:45;26.17;;;10.57;;
6280;SDS011;3173;48.204;11.612;2022-12-18T10:31:19;33.50;;;12.30;;
6280;SDS011;3173;48.204;11.612;2022-12-18T10:33:45;28.27;;;12.77;;
6280;SDS011;3173;48.204;11.612;2022-12-18T10:36:11;29.25;;;13.63;;
6280;SDS011;3173;48.204;11.612;2022-12-18T10:38:37;27.25;;;11.15;;
6280;SDS011;3173;48.204;11.612;2022-12-18T10:41:25;22.17;;;11.85;;
6280;SDS011;3173;48.204;11.612;2022-12-18T10:44:38;25.02;;;10.70;;
6280;SDS011;3173;48.204;11.612;2022-12-18T10:46:39;28.45;;;10.52;;
6280;SDS011;3173;48.204;11.612;2022-12-18T10:49:05;27.33;;;12.50;;
6280;SDS011;3173;48.204;11.612;2022-12-18T10:51:33;21.85;;;10.57;;
6280;SDS011;3173;48.204;11.612;2022-12-18T10:56:26;22.57;;;10.50;;
6280;SDS011;3173;48.204;11.612;2022-12-18T10:59:12;24.05;;;10.25;;
6280;SDS011;3173;48.204;11.612;2022-12-18T11:02:15;19.02;;;9.35;;
6280;SDS011;3173;48.204;11.612;2022-12-18T11:04:31;25.90;;;11.23;;
6280;SDS011;3173;48.204;11.612;2022-12-18T11:07:02;25.55;;;10.90;;
6280;SDS011;3173;48.204;11.612;2022-12-18T11:09:32;24.40;;;10.35;;
6280;SDS011;3173;48.204;11.612;2022-12-18T11:12:00;24.00;;;10.10;;
6280;SDS011;3173;48.204;11.612;2022-12-18T11:14:31;23.13;;;10.43;;
6280;SDS011;3173;48.204;11.612;2022-12-18T11:16:58;23.38;;;9.75;;
6280;SDS011;3173;48.204;11.612;2022-12-18T11:19:37;24.60;;;9.88;;
6280;SDS011;3173;48.204;11.612;2022-12-18T11:27:35;23.73;;;11.55;;
6280;SDS011;3173;48.204;11.612;2022-12-18T11:30:07;25.23;;;10.45;;
6280;SDS011;3173;48.204;11.612;2022-12-18T11:32:35;26.92;;;10.23;;
6280;SDS011;3173;48.204;11.612;2022-12-18T11:35:04;27.25;;;11.07;;
6280;SDS011;3173;48.204;11.612;2022-12-18T11:37:33;28.05;;;11.45;;
6280;SDS011;3173;48.204;11.612;2022-12-18T11:40:01;22.63;;;9.73;;
6280;SDS011;3173;48.204;11.612;2022-12-18T11:42:35;25.80;;;11.15;;
6280;SDS011;3173;48.204;11.612;2022-12-18T11:47:42;23.95;;;10.75;;
6280;SDS011;3173;48.204;11.612;2022-12-18T11:50:13;25.33;;;9.32;;
6280;SDS011;3173;48.204;11.612;2022-12-18T11:52:40;25.27;;;10.98;;
6280;SDS011;3173;48.204;11.612;2022-12-18T11:55:18;24.30;;;10.77;;
6280;SDS011;3173;48.204;11.612;2022-12-18T11:58:05;23.25;;;10.93;;
6280;SDS011;3173;48.204;11.612;2022-12-18T12:00:34;24.73;;;10.98;;
6280;SDS011;3173;48.204;11.612;2022-12-18T12:03:09;25.63;;;9.93;;
6280;SDS011;3173;48.204;11.612;2022-12-18T12:05:42;27.83;;;12.15;;
6280;SDS011;3173;48.204;11.612;2022-12-18T12:10:48;24.10;;;11.40;;
6280;SDS011;3173;48.204;11.612;2022-12-18T12:13:29;19.92;;;9.60;;
6280;SDS011;3173;48.204;11.612;2022-12-18T12:16:03;20.33;;;9.23;;
6280;SDS011;3173;48.204;11.612;2022-12-18T12:21:18;28.10;;;10.60;;
6280;SDS011;3173;48.204;11.612;2022-12-18T12:29:20;26.88;;;10.70;;
6280;SDS011;3173;48.204;11.612;2022-12-18T12:32:00;26.42;;;11.00;;
6280;SDS011;3173;48.204;11.612;2022-12-18T12:34:34;29.90;;;11.52;;
6280;SDS011;3173;48.204;11.612;2022-12-18T12:39:48;27.00;;;11.13;;
6280;SDS011;3173;48.204;11.612;2022-12-18T12:42:23;24.20;;;10.60;;
6280;SDS011;3173;48.204;11.612;2022-12-18T12:45:13;23.65;;;11.35;;
6280;SDS011;3173;48.204;11.612;2022-12-18T12:47:41;24.90;;;11.57;;
6280;SDS011;3173;48.204;11.612;2022-12-18T12:50:12;26.48;;;10.75;;
6280;SDS011;3173;48.204;11.612;2022-12-18T12:52:59;40.38;;;11.48;;
6280;SDS011;3173;48.204;11.612;2022-12-18T12:55:26;20.33;;;9.98;;
6280;SDS011;3173;48.204;11.612;2022-12-18T13:00:25;29.02;;;10.82;;
6280;SDS011;3173;48.204;11.612;2022-12-18T13:03:00;25.55;;;11.70;;
6280;SDS011;3173;48.204;11.612;2022-12-18T13:08:21;27.88;;;11.00;;
6280;SDS011;3173;48.204;11.612;2022-12-18T13:10:47;31.45;;;11.30;;
6280;SDS011;3173;48.204;11.612;2022-12-18T13:13:14;26.08;;;11.57;;
6280;SDS011;3173;48.204;11.612;2022-12-18T13:15:44;29.58;;;11.48;;
6280;SDS011;3173;48.204;11.612;2022-12-18T13:20:47;27.45;;;11.40;;
6280;SDS011;3173;48.204;11.612;2022-12-18T13:25:58;25.25;;;11.43;;
6280;SDS011;3173;48.204;11.612;2022-12-18T13:30:56;26.45;;;10.88;;
6280;SDS011;3173;48.204;11.612;2022-12-18T13:35:53;23.73;;;10.82;;
6280;SDS011;3173;48.204;11.612;2022-12-18T13:40:55;25.50;;;11.33;;
6280;SDS011;3173;48.204;11.612;2022-12-18T13:48:33;27.90;;;11.07;;
6280;SDS011;3173;48.204;11.612;2022-12-18T13:51:00;27.65;;;10.70;;
6280;SDS011;3173;48.204;11.612;2022-12-18T13:53:51;23.63;;;10.13;;
6280;SDS011;3173;48.204;11.612;2022-12-18T13:56:18;22.55;;;10.20;;
6280;SDS011;3173;48.204;11.612;2022-12-18T13:59:12;26.67;;;11.02;;
6280;SDS011;3173;48.204;11.612;2022-12-18T14:01:32;24.38;;;11.60;;
6280;SDS011;3173;48.204;11.612;2022-12-18T14:07:03;25.52;;;10.65;;
6280;SDS011;3173;48.204;11.612;2022-12-18T14:09:34;22.52;;;10.32;;
6280;SDS011;3173;48.204;11.612;2022-12-18T14:12:01;28.13;;;10.45;;
6280;SDS011;3173;48.204;11.612;2022-12-18T14:14:49;24.63;;;11.70;;
6280;SDS011;3173;48.204;11.612;2022-12-18T14:17:16;27.52;;;11.35;;
6280;SDS011;3173;48.204;11.612;2022-12-18T14:19:43;27.70;;;11.60;;
6280;SDS011;3173;48.204;11.612;2022-12-18T14:22:21;25.70;;;11.60;;
6280;SDS011;3173;48.204;11.612;2022-12-18T14:25:37;22.67;;;11.23;;
6280;SDS011;3173;48.204;11.612;2022-12-18T14:35:36;29.15;;;11.93;;
6280;SDS011;3173;48.204;11.612;2022-12-18T14:40:41;27.90;;;12.38;;
6280;SDS011;3173;48.204;11.612;2022-12-18T14:43:09;24.52;;;11.70;;
6280;SDS011;3173;48.204;11.612;2022-12-18T14:45:36;29.98;;;13.20;;
6280;SDS011;3173;48.204;11.612;2022-12-18T14:48:06;26.77;;;11.63;;
6280;SDS011;3173;48.204;11.612;2022-12-18T14:50:32;29.20;;;11.70;;
6280;SDS011;3173;48.204;11.612;2022-12-18T14:52:58;28.55;;;11.65;;
6280;SDS011;3173;48.204;11.612;2022-12-18T14:55:25;32.42;;;12.85;;
6280;SDS011;3173;48.204;11.612;2022-12-18T14:57:52;29.52;;;12.13;;
6280;SDS011;3173;48.204;11.612;2022-12-18T15:00:19;30.50;;;13.00;;
6280;SDS011;3173;48.204;11.612;2022-12-18T15:02:46;35.17;;;12.52;;
6280;SDS011;3173;48.204;11.612;2022-12-18T15:07:40;29.08;;;13.23;;
6280;SDS011;3173;48.204;11.612;2022-12-18T15:14:58;31.60;;;13.15;;
6280;SDS011;3173;48.204;11.612;2022-12-18T15:17:25;26.52;;;11.77;;
6280;SDS011;3173;48.204;11.612;2022-12-18T15:19:52;33.38;;;14.00;;
6280;SDS011;3173;48.204;11.612;2022-12-18T15:22:24;38.20;;;14.13;;
6280;SDS011;3173;48.204;11.612;2022-12-18T15:24:51;34.97;;;12.27;;
6280;SDS011;3173;48.204;11.612;2022-12-18T15:27:33;29.52;;;12.88;;
6280;SDS011;3173;48.204;11.612;2022-12-18T15:32:33;48.80;;;18.45;;
6280;SDS011;3173;48.204;11.612;2022-12-18T15:35:12;49.05;;;20.13;;
6280;SDS011;3173;48.204;11.612;2022-12-18T15:37:39;34.47;;;15.18;;
6280;SDS011;3173;48.204;11.612;2022-12-18T15:40:06;32.17;;;13.85;;
6280;SDS011;3173;48.204;11.612;2022-12-18T15:42:32;34.17;;;14.23;;
6280;SDS011;3173;48.204;11.612;2022-12-18T15:45:17;34.45;;;15.35;;
6280;SDS011;3173;48.204;11.612;2022-12-18T15:47:43;35.28;;;15.55;;
6280;SDS011;3173;48.204;11.612;2022-12-18T15:50:09;41.20;;;16.40;;
6280;SDS011;3173;48.204;11.612;2022-12-18T15:52:45;35.53;;;14.88;;
6280;SDS011;3173;48.204;11.612;2022-12-18T15:55:12;33.60;;;14.57;;
6280;SDS011;3173;48.204;11.612;2022-12-18T15:57:58;42.00;;;14.95;;
6280;SDS011;3173;48.204;11.612;2022-12-18T16:00:24;38.87;;;15.80;;
6280;SDS011;3173;48.204;11.612;2022-12-18T16:02:50;38.60;;;15.23;;
6280;SDS011;3173;48.204;11.612;2022-12-18T16:05:16;29.25;;;13.38;;
6280;SDS011;3173;48.204;11.612;2022-12-18T16:07:43;31.95;;;13.10;;
6280;SDS011;3173;48.204;11.612;2022-12-18T16:10:09;29.98;;;12.27;;
6280;SDS011;3173;48.204;11.612;2022-12-18T16:12:35;36.25;;;14.60;;
6280;SDS011;3173;48.204;11.612;2022-12-18T16:15:02;30.02;;;13.30;;
6280;SDS011;3173;48.204;11.612;2022-12-18T16:17:29;39.50;;;14.70;;
6280;SDS011;3173;48.204;11.612;2022-12-18T16:19:55;32.92;;;13.50;;
6280;SDS011;3173;48.204;11.612;2022-12-18T16:22:22;34.45;;;14.05;;
6280;SDS011;3173;48.204;11.612;2022-12-18T16:24:49;32.72;;;12.65;;
6280;SDS011;3173;48.204;11.612;2022-12-18T16:27:16;37.33;;;13.63;;
6280;SDS011;3173;48.204;11.612;2022-12-18T16:29:42;37.65;;;15.50;;
6280;SDS011;3173;48.204;11.612;2022-12-18T16:32:08;31.88;;;13.20;;
6280;SDS011;3173;48.204;11.612;2022-12-18T16:34:37;33.55;;;15.30;;
6280;SDS011;3173;48.204;11.612;2022-12-18T16:37:04;28.95;;;13.40;;
6280;SDS011;3173;48.204;11.612;2022-12-18T16:39:31;34.88;;;14.30;;
6280;SDS011;3173;48.204;11.612;2022-12-18T16:41:58;30.83;;;13.70;;
6280;SDS011;3173;48.204;11.612;2022-12-18T16:44:24;28.27;;;13.07;;
6280;SDS011;3173;48.204;11.612;2022-12-18T16:46:50;32.38;;;14.10;;
6280;SDS011;3173;48.204;11.612;2022-12-18T16:49:17;32.05;;;13.50;;